createdAt,value
2018-05-23T00:00:07.152Z,78.60
2018-05-23T00:02:35.019Z,78.70
2018-05-23T00:05:02.886Z,78.60
2018-05-23T00:07:30.853Z,79.50
2018-05-23T00:09:58.720Z,79.50
2018-05-23T00:12:26.587Z,79.70
2018-05-23T00:14:54.383Z,79.70
2018-05-23T00:17:23.036Z,79.50
2018-05-23T00:19:50.866Z,79.50
2018-05-23T00:22:18.666Z,80.00
2018-05-23T00:24:46.461Z,79.50
2018-05-23T00:27:14.401Z,79.30
2018-05-23T00:29:42.267Z,79.70
2018-05-23T00:32:10.059Z,79.40
2018-05-23T00:34:37.999Z,79.80
2018-05-23T00:37:05.867Z,79.70
2018-05-23T00:39:33.660Z,79.60
2018-05-23T00:42:01.600Z,80.40
2018-05-23T00:44:29.466Z,80.40
2018-05-23T00:46:57.334Z,80.50
2018-05-23T00:49:25.200Z,80.20
2018-05-23T00:51:53.066Z,80.50
2018-05-23T00:54:20.932Z,80.60
2018-05-23T00:56:48.800Z,80.40
2018-05-23T00:59:16.666Z,80.70
2018-05-23T01:01:44.532Z,80.70
2018-05-23T01:04:12.399Z,80.80
2018-05-23T01:06:40.192Z,80.50
2018-05-23T01:09:08.061Z,80.00
2018-05-23T01:11:36.716Z,80.40
2018-05-23T01:14:04.787Z,80.10
2018-05-23T01:16:32.654Z,79.90
2018-05-23T01:19:00.551Z,79.90
2018-05-23T01:21:29.206Z,80.20
2018-05-23T01:23:57.081Z,80.80
2018-05-23T01:26:24.940Z,81.00
2018-05-23T01:28:52.805Z,80.60
2018-05-23T01:31:20.676Z,80.70
2018-05-23T01:33:48.744Z,80.50
2018-05-23T01:36:16.712Z,80.80
2018-05-23T01:38:44.578Z,81.00
2018-05-23T01:41:12.548Z,80.50
2018-05-23T01:43:40.416Z,80.90
2018-05-23T01:46:08.382Z,80.70
2018-05-23T01:48:48.128Z,81.00
2018-05-23T01:51:15.950Z,80.90
2018-05-23T01:53:43.861Z,80.90
2018-05-23T01:56:11.624Z,80.60
2018-05-23T01:58:39.492Z,80.90
2018-05-23T02:01:07.359Z,81.00
2018-05-23T02:03:35.226Z,81.30
2018-05-23T02:06:03.093Z,81.00
2018-05-23T02:08:30.957Z,80.90
2018-05-23T02:10:58.824Z,81.20
2018-05-23T02:13:26.691Z,80.40
2018-05-23T02:15:54.557Z,80.70
2018-05-23T02:18:22.357Z,80.80
2018-05-23T02:20:52.359Z,80.90
2018-05-23T02:23:23.155Z,80.70
2018-05-23T02:25:53.366Z,80.80
2018-05-23T02:28:21.262Z,80.90
2018-05-23T02:30:49.130Z,80.90
2018-05-23T02:33:16.996Z,80.50
2018-05-23T02:35:45.607Z,81.30
2018-05-23T02:38:14.265Z,81.30
2018-05-23T02:40:42.062Z,81.30
2018-05-23T02:43:10.716Z,80.90
2018-05-23T02:45:38.695Z,80.90
2018-05-23T02:48:06.755Z,80.70
2018-05-23T02:50:34.585Z,80.70
2018-05-23T02:53:02.591Z,80.70
2018-05-23T02:55:30.458Z,81.00
2018-05-23T02:57:58.324Z,80.70
2018-05-23T03:00:26.221Z,80.80
2018-05-23T03:02:54.934Z,80.80
2018-05-23T03:05:23.460Z,81.20
2018-05-23T03:07:51.326Z,81.20
2018-05-23T03:10:19.297Z,81.30
2018-05-23T03:12:47.161Z,81.10
2018-05-23T03:15:15.033Z,81.20
2018-05-23T03:17:42.894Z,81.10
2018-05-23T03:20:10.692Z,81.00
2018-05-23T03:22:38.628Z,81.30
2018-05-23T03:25:06.495Z,81.30
2018-05-23T03:27:34.464Z,81.70
2018-05-23T03:30:02.436Z,81.20
2018-05-23T03:32:31.121Z,81.50
2018-05-23T03:34:58.912Z,81.50
2018-05-23T03:37:27.569Z,81.00
2018-05-23T03:39:55.442Z,80.60
2018-05-23T03:42:23.301Z,80.50
2018-05-23T03:44:51.211Z,80.60
2018-05-23T03:47:19.853Z,81.30
2018-05-23T03:49:47.649Z,81.30
2018-05-23T03:52:16.304Z,81.60
2018-05-23T03:54:44.170Z,81.10
2018-05-23T03:57:12.037Z,81.10
2018-05-23T03:59:51.781Z,81.30
2018-05-23T04:02:31.531Z,81.40
2018-05-23T04:05:11.169Z,81.80
2018-05-23T04:07:39.138Z,82.00
2018-05-23T04:10:07.004Z,81.70
2018-05-23T04:12:34.871Z,82.30
2018-05-23T04:15:02.840Z,81.30
2018-05-23T04:17:31.526Z,80.50
2018-05-23T04:19:59.392Z,80.50
2018-05-23T04:22:27.282Z,80.30
2018-05-23T04:24:55.858Z,80.10
2018-05-23T04:27:25.245Z,80.00
2018-05-23T04:29:53.044Z,80.00
2018-05-23T04:32:21.695Z,80.30
2018-05-23T04:34:49.514Z,80.30
2018-05-23T04:37:17.355Z,80.60
2018-05-23T04:39:46.012Z,81.50
2018-05-23T04:42:13.879Z,80.30
2018-05-23T04:44:41.741Z,80.30
2018-05-23T04:47:09.717Z,80.50
2018-05-23T04:49:37.580Z,80.40
2018-05-23T04:52:05.448Z,80.30
2018-05-23T04:54:33.314Z,80.10
2018-05-23T04:57:01.179Z,79.70
2018-05-23T04:59:29.050Z,79.70
2018-05-23T05:01:57.015Z,80.50
2018-05-23T05:04:24.882Z,79.30
2018-05-23T05:06:52.852Z,79.00
2018-05-23T05:09:20.644Z,78.90
2018-05-23T05:11:49.229Z,79.00
2018-05-23T05:14:17.177Z,78.90
2018-05-23T05:16:45.035Z,79.90
2018-05-23T05:19:12.832Z,79.60
2018-05-23T05:21:41.484Z,80.20
2018-05-23T05:24:09.351Z,80.20
2018-05-23T05:26:37.145Z,79.70
2018-05-23T05:29:05.085Z,79.70
2018-05-23T05:31:32.950Z,79.40
2018-05-23T05:34:00.914Z,79.80
2018-05-23T05:36:28.786Z,79.10
2018-05-23T05:38:56.655Z,78.40
2018-05-23T05:41:24.519Z,78.00
2018-05-23T05:43:52.385Z,78.10
2018-05-23T05:46:20.252Z,77.70
2018-05-23T05:48:48.119Z,76.00
2018-05-23T05:51:15.985Z,75.50
2018-05-23T05:53:43.870Z,74.50
2018-05-23T05:56:12.537Z,75.30
2018-05-23T05:58:40.404Z,75.30
2018-05-23T06:01:08.271Z,75.60
2018-05-23T06:03:36.139Z,75.50
2018-05-23T06:06:04.106Z,75.20
2018-05-23T06:08:31.972Z,75.50
2018-05-23T06:10:59.852Z,74.30
2018-05-23T06:13:27.705Z,73.40
2018-05-23T06:15:55.572Z,72.40
2018-05-23T06:18:23.444Z,71.70
2018-05-23T06:20:51.306Z,71.60
2018-05-23T06:23:19.173Z,71.50
2018-05-23T06:25:47.039Z,72.00
2018-05-23T06:28:14.835Z,71.30
2018-05-23T06:30:43.417Z,70.80
2018-05-23T06:33:11.356Z,70.00
2018-05-23T06:35:39.136Z,69.20
2018-05-23T06:38:07.064Z,68.70
2018-05-23T06:40:34.955Z,68.60
2018-05-23T06:43:02.748Z,68.10
2018-05-23T06:45:30.691Z,68.10
2018-05-23T06:47:58.555Z,67.50
2018-05-23T06:50:26.418Z,67.40
2018-05-23T06:52:54.288Z,66.50
2018-05-23T06:55:22.901Z,59.70
2018-05-23T06:57:52.249Z,58.00
2018-05-23T07:00:20.140Z,58.00
2018-05-23T07:02:48.007Z,57.30
2018-05-23T07:05:15.875Z,55.90
2018-05-23T07:07:43.740Z,55.90
2018-05-23T07:10:11.607Z,54.00
2018-05-23T07:12:39.475Z,54.30
2018-05-23T07:15:07.339Z,53.30
2018-05-23T07:17:35.132Z,53.70
2018-05-23T07:20:03.892Z,52.80
2018-05-23T07:22:31.758Z,52.70
2018-05-23T07:24:59.727Z,50.50
2018-05-23T07:27:27.590Z,45.30
2018-05-23T07:29:55.388Z,43.50
2018-05-23T07:32:23.326Z,42.10
2018-05-23T07:34:51.290Z,43.90
2018-05-23T07:37:19.163Z,46.50
2018-05-23T07:39:47.030Z,48.20
2018-05-23T07:42:14.896Z,50.00
2018-05-23T07:44:42.689Z,49.00
2018-05-23T07:47:10.560Z,45.70
2018-05-23T07:49:38.421Z,43.50
2018-05-23T07:52:06.362Z,41.30
2018-05-23T07:54:34.153Z,38.50
2018-05-23T07:57:02.198Z,36.50
2018-05-23T07:59:29.989Z,34.40
2018-05-23T08:01:57.829Z,33.00
2018-05-23T08:04:25.694Z,31.60
2018-05-23T08:06:53.663Z,32.20
2018-05-23T08:09:21.530Z,33.50
2018-05-23T08:11:49.502Z,34.20
2018-05-23T08:14:17.395Z,34.00
2018-05-23T08:16:45.232Z,33.00
2018-05-23T08:19:13.100Z,31.10
2018-05-23T08:21:40.965Z,30.90
2018-05-23T08:24:08.832Z,30.20
2018-05-23T08:26:36.698Z,30.00
2018-05-23T08:29:04.565Z,30.70
2018-05-23T08:31:32.437Z,30.00
2018-05-23T08:34:00.298Z,29.80
2018-05-23T08:36:28.094Z,28.90
2018-05-23T08:38:56.659Z,29.90
2018-05-23T08:41:24.436Z,29.90
2018-05-23T08:43:53.096Z,34.00
2018-05-23T08:46:20.962Z,33.90
2018-05-23T08:48:48.726Z,34.00
2018-05-23T08:51:16.592Z,35.70
2018-05-23T08:53:44.385Z,35.70
2018-05-23T08:56:12.634Z,37.20
2018-05-23T08:58:40.585Z,39.90
2018-05-23T09:01:08.804Z,41.80
2018-05-23T09:03:36.550Z,42.60
2018-05-23T09:06:04.328Z,43.20
2018-05-23T09:08:32.076Z,41.50
2018-05-23T09:10:59.821Z,40.50
2018-05-23T09:13:27.579Z,41.10
2018-05-23T09:15:55.390Z,41.70
2018-05-23T09:18:23.171Z,43.70
2018-05-23T09:20:51.694Z,38.30
2018-05-23T09:23:19.460Z,38.10
2018-05-23T09:25:47.208Z,36.80
2018-05-23T09:28:14.963Z,36.00
2018-05-23T09:30:42.753Z,34.60
2018-05-23T09:33:10.585Z,33.70
2018-05-23T09:35:38.309Z,31.80
2018-05-23T09:38:06.065Z,31.40
2018-05-23T09:40:33.809Z,31.90
2018-05-23T09:43:01.573Z,30.40
2018-05-23T09:45:29.353Z,30.90
2018-05-23T09:47:57.097Z,31.30
2018-05-23T09:50:24.854Z,32.70
2018-05-23T09:52:53.011Z,31.60
2018-05-23T09:55:20.776Z,31.30
2018-05-23T09:57:48.553Z,31.40
2018-05-23T10:00:16.365Z,30.80
2018-05-23T10:02:44.480Z,30.20
2018-05-23T10:05:12.300Z,30.60
2018-05-23T10:07:40.148Z,30.80
2018-05-23T10:10:07.901Z,31.10
2018-05-23T10:12:35.657Z,31.80
2018-05-23T10:15:03.529Z,31.70
2018-05-23T10:17:31.301Z,32.00
2018-05-23T10:19:59.052Z,33.40
2018-05-23T10:22:26.822Z,32.10
2018-05-23T10:24:54.598Z,33.10
2018-05-23T10:27:22.338Z,35.40
2018-05-23T10:29:50.090Z,36.40
2018-05-23T10:32:17.853Z,36.70
2018-05-23T10:34:45.597Z,37.50
2018-05-23T10:37:14.120Z,40.90
2018-05-23T10:39:42.144Z,40.80
2018-05-23T10:42:10.698Z,40.80
2018-05-23T10:44:38.441Z,40.80
2018-05-23T10:47:06.200Z,41.40
2018-05-23T10:49:33.949Z,42.40
2018-05-23T10:52:01.907Z,43.50
2018-05-23T10:54:30.456Z,45.00
2018-05-23T10:56:58.211Z,45.10
2018-05-23T10:59:25.969Z,45.30
2018-05-23T11:01:53.764Z,46.40
2018-05-23T11:04:22.478Z,47.20
2018-05-23T11:06:51.184Z,46.80
2018-05-23T11:09:18.941Z,46.80
2018-05-23T11:11:46.849Z,47.70
2018-05-23T11:14:14.608Z,46.70
2018-05-23T11:16:43.009Z,47.40
2018-05-23T11:19:12.053Z,45.50
2018-05-23T11:21:39.820Z,45.50
2018-05-23T11:24:07.704Z,46.30
2018-05-23T11:26:35.465Z,46.80
2018-05-23T11:29:03.324Z,47.20
2018-05-23T11:31:31.194Z,48.30
2018-05-23T11:33:58.963Z,47.90
2018-05-23T11:36:26.727Z,47.60
2018-05-23T11:38:54.489Z,47.10
2018-05-23T11:41:23.109Z,45.80
2018-05-23T11:43:51.619Z,46.00
2018-05-23T11:46:19.365Z,46.00
2018-05-23T11:48:47.885Z,42.50
2018-05-23T11:51:15.644Z,42.50
2018-05-23T11:53:43.393Z,43.70
2018-05-23T11:56:11.149Z,44.70
2018-05-23T11:58:38.889Z,44.40
2018-05-23T12:01:06.633Z,43.30
2018-05-23T12:03:34.400Z,44.00
2018-05-23T12:06:02.183Z,45.10
2018-05-23T12:08:30.704Z,45.70
2018-05-23T12:10:58.455Z,45.70
2018-05-23T12:13:26.204Z,45.00
2018-05-23T12:15:54.919Z,44.20
2018-05-23T12:18:23.531Z,44.50
2018-05-23T12:20:51.324Z,44.50
2018-05-23T12:23:19.262Z,44.90
2018-05-23T12:25:47.129Z,44.20
2018-05-23T12:28:15.098Z,44.90
2018-05-23T12:30:42.965Z,45.10
2018-05-23T12:33:10.835Z,44.50
2018-05-23T12:35:38.697Z,43.80
2018-05-23T12:38:06.462Z,44.10
2018-05-23T12:40:34.431Z,42.60
2018-05-23T12:43:02.299Z,41.70
2018-05-23T12:45:30.164Z,42.30
2018-05-23T12:47:58.117Z,43.00
2018-05-23T12:50:25.928Z,41.40
2018-05-23T12:52:53.866Z,42.30
2018-05-23T12:55:21.732Z,42.80
2018-05-23T12:57:49.599Z,40.40
2018-05-23T13:00:17.465Z,39.50
2018-05-23T13:02:45.333Z,39.90
2018-05-23T13:05:13.301Z,38.40
2018-05-23T13:07:41.257Z,39.00
2018-05-23T13:10:09.137Z,39.60
2018-05-23T13:12:37.081Z,40.60
2018-05-23T13:15:05.689Z,41.00
2018-05-23T13:17:33.556Z,41.00
2018-05-23T13:20:01.426Z,41.20
2018-05-23T13:22:29.288Z,39.80
2018-05-23T13:24:57.155Z,40.50
2018-05-23T13:27:25.025Z,39.80
2018-05-23T13:29:52.889Z,40.40
2018-05-23T13:32:20.755Z,40.60
2018-05-23T13:34:48.725Z,41.10
2018-05-23T13:37:16.591Z,40.60
2018-05-23T13:39:44.457Z,39.80
2018-05-23T13:42:12.249Z,39.90
2018-05-23T13:44:40.907Z,38.50
2018-05-23T13:47:08.773Z,38.40
2018-05-23T13:49:36.641Z,38.90
2018-05-23T13:52:04.435Z,39.60
2018-05-23T13:54:32.375Z,40.60
2018-05-23T13:57:00.164Z,40.00
2018-05-23T13:59:28.108Z,40.60
2018-05-23T14:01:56.025Z,44.40
2018-05-23T14:04:24.761Z,46.40
2018-05-23T14:06:52.557Z,46.40
2018-05-23T14:09:20.595Z,47.00
2018-05-23T14:11:48.464Z,46.50
2018-05-23T14:14:16.332Z,47.10
2018-05-23T14:16:44.197Z,47.90
2018-05-23T14:19:12.018Z,49.10
2018-05-23T14:21:40.650Z,50.00
2018-05-23T14:24:08.513Z,50.00
2018-05-23T14:26:36.382Z,51.00
2018-05-23T14:29:04.349Z,50.70
2018-05-23T14:31:32.215Z,50.90
2018-05-23T14:34:00.078Z,51.40
2018-05-23T14:36:27.948Z,50.60
2018-05-23T14:38:55.816Z,50.90
2018-05-23T14:41:23.684Z,50.20
2018-05-23T14:43:51.565Z,48.40
2018-05-23T14:46:19.313Z,48.50
2018-05-23T14:48:47.179Z,48.60
2018-05-23T14:51:14.973Z,48.00
2018-05-23T14:53:42.833Z,47.70
2018-05-23T14:56:10.652Z,47.70
2018-05-23T14:58:38.546Z,46.90
2018-05-23T15:01:06.409Z,47.60
2018-05-23T15:03:34.201Z,47.00
2018-05-23T15:06:03.504Z,48.90
2018-05-23T15:08:31.507Z,48.90
2018-05-23T15:11:00.130Z,50.70
2018-05-23T15:13:27.995Z,50.60
2018-05-23T15:15:55.861Z,51.30
2018-05-23T15:18:24.478Z,52.20
2018-05-23T15:20:52.415Z,52.20
2018-05-23T15:23:20.382Z,52.70
2018-05-23T15:25:48.249Z,52.00
2018-05-23T15:28:16.120Z,52.10
2018-05-23T15:30:44.097Z,52.00
2018-05-23T15:33:11.953Z,52.00
2018-05-23T15:35:39.818Z,52.00
2018-05-23T15:38:07.685Z,52.50
2018-05-23T15:40:35.551Z,52.30
2018-05-23T15:43:03.348Z,51.60
2018-05-23T15:45:31.211Z,51.70
2018-05-23T15:47:59.151Z,51.70
2018-05-23T15:50:27.223Z,51.70
2018-05-23T15:52:55.021Z,51.60
2018-05-23T15:55:23.544Z,51.50
2018-05-23T15:57:51.304Z,51.50
2018-05-23T16:00:19.666Z,51.60
2018-05-23T16:02:48.008Z,51.50
2018-05-23T16:05:15.761Z,51.50
2018-05-23T16:07:43.982Z,50.60
2018-05-23T16:10:12.517Z,50.50
2018-05-23T16:12:40.883Z,50.50
2018-05-23T16:15:08.646Z,50.60
2018-05-23T16:17:37.077Z,51.20
2018-05-23T16:20:05.644Z,51.40
2018-05-23T16:22:33.409Z,51.40
2018-05-23T16:25:01.184Z,52.00
2018-05-23T16:27:29.819Z,51.10
2018-05-23T16:29:58.139Z,51.00
2018-05-23T16:32:25.885Z,50.50
2018-05-23T16:34:53.949Z,50.50
2018-05-23T16:37:21.720Z,50.70
2018-05-23T16:39:50.129Z,51.00
2018-05-23T16:42:18.960Z,51.20
2018-05-23T16:44:46.713Z,51.10
2018-05-23T16:47:14.469Z,51.30
2018-05-23T16:49:42.754Z,51.80
2018-05-23T16:52:10.849Z,52.00
2018-05-23T16:54:38.645Z,52.10
2018-05-23T16:57:06.419Z,52.30
2018-05-23T16:59:34.944Z,53.70
2018-05-23T17:02:02.700Z,53.70
2018-05-23T17:04:30.464Z,53.50
2018-05-23T17:06:58.217Z,53.30
2018-05-23T17:09:25.981Z,53.50
2018-05-23T17:11:53.749Z,53.90
2018-05-23T17:14:21.752Z,54.10
2018-05-23T17:16:49.532Z,54.20
2018-05-23T17:19:17.304Z,54.50
2018-05-23T17:21:45.081Z,55.30
2018-05-23T17:24:13.612Z,55.10
2018-05-23T17:26:41.373Z,55.10
2018-05-23T17:29:09.313Z,55.50
2018-05-23T17:31:37.917Z,55.90
2018-05-23T17:34:06.397Z,56.00
2018-05-23T17:36:34.154Z,56.00
2018-05-23T17:39:01.944Z,56.50
2018-05-23T17:41:29.738Z,57.10
2018-05-23T17:43:58.299Z,57.60
2018-05-23T17:46:26.045Z,57.60
2018-05-23T17:48:53.797Z,58.10
2018-05-23T17:51:21.544Z,58.80
2018-05-23T17:53:50.065Z,59.30
2018-05-23T17:56:17.838Z,59.30
2018-05-23T17:58:45.594Z,60.30
2018-05-23T18:01:13.352Z,60.70
2018-05-23T18:03:41.114Z,61.10
2018-05-23T18:06:09.216Z,62.10
2018-05-23T18:08:37.245Z,62.30
2018-05-23T18:11:05.415Z,62.40
2018-05-23T18:13:33.274Z,62.40
2018-05-23T18:16:01.431Z,62.80
2018-05-23T18:18:29.968Z,62.80
2018-05-23T18:20:57.903Z,62.80
2018-05-23T18:23:26.719Z,62.70
2018-05-23T18:25:54.804Z,62.60
2018-05-23T18:28:23.183Z,62.20
2018-05-23T18:30:50.924Z,62.70
2018-05-23T18:33:18.695Z,62.70
2018-05-23T18:35:46.444Z,63.10
2018-05-23T18:38:14.196Z,63.50
2018-05-23T18:40:41.956Z,63.90
2018-05-23T18:43:09.715Z,64.40
2018-05-23T18:45:38.237Z,65.00
2018-05-23T18:48:05.989Z,65.00
2018-05-23T18:50:33.756Z,65.40
2018-05-23T18:53:01.505Z,65.60
2018-05-23T18:55:29.269Z,65.80
2018-05-23T18:57:57.045Z,65.80
2018-05-23T19:00:24.813Z,66.10
2018-05-23T19:02:52.695Z,66.10
2018-05-23T19:05:20.492Z,66.10
2018-05-23T19:07:49.147Z,65.50
2018-05-23T19:10:16.912Z,65.50
2018-05-23T19:12:44.672Z,65.10
2018-05-23T19:15:12.441Z,65.60
2018-05-23T19:17:40.195Z,65.70
2018-05-23T19:20:07.957Z,66.00
2018-05-23T19:22:35.709Z,66.10
2018-05-23T19:25:03.546Z,66.10
2018-05-23T19:27:31.306Z,66.30
2018-05-23T19:30:00.738Z,66.30
2018-05-23T19:32:28.509Z,66.30
2018-05-23T19:34:56.597Z,66.70
2018-05-23T19:37:24.353Z,66.60
2018-05-23T19:39:52.154Z,66.80
2018-05-23T19:42:19.906Z,67.20
2018-05-23T19:44:47.669Z,67.00
2018-05-23T19:47:15.454Z,67.10
2018-05-23T19:49:44.938Z,67.10
2018-05-23T19:52:12.699Z,67.00
2018-05-23T19:54:40.452Z,67.40
2018-05-23T19:57:08.203Z,67.50
2018-05-23T19:59:35.952Z,67.50
2018-05-23T20:02:03.739Z,67.30
2018-05-23T20:04:31.510Z,67.30
2018-05-23T20:06:59.267Z,67.90
2018-05-23T20:09:27.028Z,67.80
2018-05-23T20:11:54.786Z,67.70
2018-05-23T20:14:22.637Z,67.70
2018-05-23T20:16:50.338Z,67.70
2018-05-23T20:19:18.093Z,67.40
2018-05-23T20:21:45.853Z,67.90
2018-05-23T20:24:13.604Z,68.20
2018-05-23T20:26:41.369Z,68.30
2018-05-23T20:29:09.135Z,68.60
2018-05-23T20:31:36.976Z,68.70
2018-05-23T20:34:04.861Z,69.00
2018-05-23T20:36:32.616Z,69.00
2018-05-23T20:39:00.669Z,68.80
2018-05-23T20:41:28.668Z,68.30
2018-05-23T20:43:56.576Z,68.50
2018-05-23T20:46:24.461Z,68.50
2018-05-23T20:48:53.172Z,68.80
2018-05-23T20:51:21.094Z,68.70
2018-05-23T20:53:48.858Z,69.10
2018-05-23T20:56:17.121Z,69.50
2018-05-23T20:58:45.005Z,69.90
2018-05-23T21:01:13.585Z,70.00
2018-05-23T21:03:41.940Z,70.30
2018-05-23T21:06:09.716Z,69.90
2018-05-23T21:08:37.994Z,69.60
2018-05-23T21:11:06.284Z,69.40
2018-05-23T21:13:34.781Z,69.40
2018-05-23T21:16:03.309Z,69.80
2018-05-23T21:18:31.676Z,69.80
2018-05-23T21:21:00.120Z,70.30
2018-05-23T21:23:29.061Z,71.00
2018-05-23T21:25:57.217Z,71.00
2018-05-23T21:28:25.593Z,71.20
2018-05-23T21:30:54.012Z,71.70
2018-05-23T21:33:21.904Z,72.10
2018-05-23T21:35:49.843Z,72.40
2018-05-23T21:38:18.030Z,72.50
2018-05-23T21:40:45.884Z,72.10
2018-05-23T21:43:14.203Z,71.50
2018-05-23T21:45:42.729Z,71.70
2018-05-23T21:48:10.560Z,71.60
2018-05-23T21:50:38.489Z,71.50
2018-05-23T21:53:06.254Z,71.40
2018-05-23T21:55:34.017Z,71.20
2018-05-23T21:58:02.781Z,71.80
2018-05-23T22:00:30.587Z,72.20
2018-05-23T22:02:58.341Z,72.40
2018-05-23T22:05:26.109Z,72.70
2018-05-23T22:07:53.872Z,73.20
2018-05-23T22:10:21.633Z,73.00
2018-05-23T22:12:49.385Z,73.20
2018-05-23T22:15:17.170Z,73.10
2018-05-23T22:17:44.948Z,72.90
2018-05-23T22:20:13.494Z,72.50
2018-05-23T22:22:41.253Z,72.40
2018-05-23T22:25:09.812Z,72.50
2018-05-23T22:27:37.656Z,72.40
2018-05-23T22:30:06.184Z,72.60
2018-05-23T22:32:35.147Z,72.60
2018-05-23T22:35:03.248Z,73.30
2018-05-23T22:37:31.009Z,72.70
2018-05-23T22:39:58.830Z,72.50
2018-05-23T22:42:27.364Z,73.50
2018-05-23T22:44:55.117Z,73.50
2018-05-23T22:47:22.888Z,73.50
2018-05-23T22:49:50.640Z,73.90
2018-05-23T22:52:18.395Z,74.00
2018-05-23T22:54:46.154Z,73.90
2018-05-23T22:57:13.910Z,73.60
2018-05-23T22:59:41.676Z,73.80
2018-05-23T23:02:09.450Z,74.40
2018-05-23T23:04:37.220Z,73.90
2018-05-23T23:07:04.986Z,73.90
2018-05-23T23:09:32.778Z,73.90
2018-05-23T23:12:00.541Z,74.60
2018-05-23T23:14:28.295Z,74.70
2018-05-23T23:16:56.049Z,74.60
2018-05-23T23:19:23.957Z,74.30
2018-05-23T23:21:51.725Z,74.50
2018-05-23T23:24:19.477Z,74.80
2018-05-23T23:26:47.236Z,75.20
2018-05-23T23:29:14.989Z,75.30
2018-05-23T23:31:42.747Z,75.00
2018-05-23T23:34:10.496Z,75.30
2018-05-23T23:36:38.254Z,75.30
2018-05-23T23:39:06.057Z,75.40
2018-05-23T23:41:33.813Z,75.50
2018-05-23T23:44:01.561Z,75.80
2018-05-23T23:46:29.311Z,76.00
2018-05-23T23:48:57.073Z,76.10
2018-05-23T23:51:24.837Z,76.00
2018-05-23T23:53:52.588Z,76.40
2018-05-23T23:56:20.460Z,76.10
2018-05-23T23:58:48.349Z,76.50
